Time;durP1;ratioP1;P1;durP2;ratioP2;P2;SDS_P1;SDS_P2;PMS_P1;PMS_P2;Temp;Humidity;BMP_temperature;BMP_pressure;BME280_temperature;BME280_humidity;BME280_pressure;Samples;Min_cycle;Max_cycle;Signal;HPM_P1;HPM_P2
2021/09/12 00:02:15;;;;;;;64.63;33.38;;;17.40;99.90;;;;;;5059626;28;20123;-81
2021/09/12 00:04:41;;;;;;;67.95;33.45;;;17.40;99.90;;;;;;5062095;28;20139;-81
2021/09/12 00:07:06;;;;;;;68.07;34.70;;;17.40;99.90;;;;;;5040739;28;22233;-80
2021/09/12 00:09:32;;;;;;;70.43;34.72;;;17.40;99.90;;;;;;5059216;28;20040;-80
2021/09/12 00:11:59;;;;;;;74.22;35.35;;;17.40;99.90;;;;;;5047806;28;20039;-80
2021/09/12 00:14:25;;;;;;;72.25;35.63;;;17.40;99.90;;;;;;5066942;28;20459;-80
2021/09/12 00:16:51;;;;;;;69.35;35.92;;;17.40;99.90;;;;;;5043996;28;20059;-80
2021/09/12 00:19:17;;;;;;;71.72;35.17;;;17.40;99.90;;;;;;5063382;28;20067;-80
2021/09/12 00:21:43;;;;;;;71.97;35.28;;;17.40;99.90;;;;;;5043960;28;20048;-80
2021/09/12 00:24:08;;;;;;;70.85;35.45;;;17.40;99.90;;;;;;5049160;28;20039;-79
2021/09/12 00:26:34;;;;;;;73.57;36.40;;;17.30;99.90;;;;;;5045167;28;20044;-79
2021/09/12 00:29:00;;;;;;;71.43;36.78;;;17.40;99.90;;;;;;5057670;28;20048;-81
2021/09/12 00:31:25;;;;;;;85.93;36.70;;;17.40;99.90;;;;;;5065615;28;20051;-79
2021/09/12 00:33:51;;;;;;;72.35;36.28;;;17.40;99.90;;;;;;5064134;28;20046;-80
2021/09/12 00:36:18;;;;;;;73.03;36.28;;;17.40;99.90;;;;;;5048149;28;20055;-80
2021/09/12 00:38:44;;;;;;;79.80;35.22;;;17.30;99.90;;;;;;5065301;28;20040;-80
2021/09/12 00:41:10;;;;;;;80.35;36.80;;;17.40;99.90;;;;;;5044248;28;20166;-79
2021/09/12 00:43:35;;;;;;;72.97;34.92;;;17.40;99.90;;;;;;5061226;28;20040;-80
2021/09/12 00:46:06;;;;;;;77.80;37.22;;;17.40;99.90;;;;;;5062919;28;20498;-82
2021/09/12 00:48:33;;;;;;;73.78;35.13;;;17.40;99.90;;;;;;5045207;28;20052;-79
2021/09/12 00:50:59;;;;;;;79.72;36.92;;;17.40;99.90;;;;;;5062648;28;20052;-81
2021/09/12 00:53:26;;;;;;;73.30;35.13;;;17.40;99.90;;;;;;5045431;28;20044;-80
2021/09/12 00:55:53;;;;;;;72.13;34.65;;;17.30;99.90;;;;;;5063324;28;20040;-80
2021/09/12 01:05:24;;;;;;;72.88;35.28;;;17.30;99.90;;;;;;5060596;28;20055;-80
2021/09/12 01:07:51;;;;;;;74.90;34.40;;;17.30;99.90;;;;;;5049921;28;20048;-80
2021/09/12 01:10:17;;;;;;;69.88;33.92;;;17.40;99.90;;;;;;5032981;28;20094;-80
2021/09/12 01:12:43;;;;;;;76.45;34.03;;;17.40;99.90;;;;;;5061544;28;20032;-80
2021/09/12 01:15:09;;;;;;;75.53;34.17;;;17.40;99.90;;;;;;5045502;28;20132;-80
2021/09/12 01:17:35;;;;;;;76.15;33.90;;;17.30;99.90;;;;;;5067122;28;20169;-80
2021/09/12 01:20:02;;;;;;;71.38;32.50;;;17.30;99.90;;;;;;5066337;28;20043;-81
2021/09/12 01:22:29;;;;;;;70.63;32.10;;;17.30;99.90;;;;;;5072777;28;20174;-80
2021/09/12 01:24:54;;;;;;;72.20;30.58;;;17.30;99.90;;;;;;5061599;28;20136;-81
2021/09/12 01:27:20;;;;;;;65.10;30.73;;;17.30;99.90;;;;;;5061686;28;20170;-81
2021/09/12 01:29:47;;;;;;;59.13;29.77;;;17.30;99.90;;;;;;5039157;28;20098;-80
2021/09/12 01:32:12;;;;;;;67.68;30.85;;;17.30;99.90;;;;;;5045324;28;20036;-80
2021/09/12 01:34:38;;;;;;;63.58;30.10;;;17.20;99.90;;;;;;5057590;28;20039;-81
2021/09/12 01:37:04;;;;;;;62.05;28.33;;;17.20;99.90;;;;;;5036699;28;20055;-81
2021/09/12 01:39:29;;;;;;;61.42;29.73;;;17.20;99.90;;;;;;5044547;28;20077;-81
2021/09/12 01:41:55;;;;;;;66.70;29.50;;;17.20;99.90;;;;;;5062391;28;20094;-81
2021/09/12 01:44:24;;;;;;;65.10;28.55;;;17.10;99.90;;;;;;5060731;28;20039;-81
2021/09/12 01:46:55;;;;;;;60.30;27.77;;;17.10;99.90;;;;;;5042001;28;20040;-81
2021/09/12 01:49:21;;;;;;;63.63;27.98;;;17.10;99.90;;;;;;5045699;28;20507;-81
2021/09/12 01:51:47;;;;;;;57.28;28.67;;;17.10;99.90;;;;;;5020880;28;20040;-80
2021/09/12 01:54:12;;;;;;;69.70;29.10;;;17.00;99.90;;;;;;5058924;28;20039;-81
2021/09/12 01:56:38;;;;;;;59.58;28.85;;;17.00;99.90;;;;;;5063439;28;20040;-80
2021/09/12 01:59:04;;;;;;;65.65;29.00;;;17.00;99.90;;;;;;5060349;28;20044;-81
2021/09/12 02:01:31;;;;;;;58.28;28.45;;;17.00;99.90;;;;;;5043664;28;20127;-80
2021/09/12 02:03:57;;;;;;;66.43;29.67;;;16.90;99.90;;;;;;5045503;28;20071;-81
2021/09/12 02:06:22;;;;;;;65.32;28.88;;;16.90;99.90;;;;;;5061812;28;20075;-81
2021/09/12 02:08:48;;;;;;;67.00;27.13;;;16.90;99.90;;;;;;5044371;28;20576;-80
2021/09/12 02:11:14;;;;;;;65.03;28.23;;;16.90;99.90;;;;;;5059303;28;20041;-80
2021/09/12 02:13:40;;;;;;;60.95;27.40;;;16.90;99.90;;;;;;5065303;28;20044;-80
2021/09/12 02:16:06;;;;;;;57.70;26.23;;;16.90;99.90;;;;;;5064472;28;20386;-81
2021/09/12 02:18:31;;;;;;;61.05;27.00;;;16.80;99.90;;;;;;5045426;28;20473;-80
2021/09/12 02:20:57;;;;;;;65.07;26.90;;;16.80;99.90;;;;;;5062259;28;20115;-81
2021/09/12 02:23:23;;;;;;;56.90;26.25;;;16.80;99.90;;;;;;5065954;28;20037;-80
2021/09/12 02:25:48;;;;;;;61.75;26.83;;;16.80;99.90;;;;;;5067097;28;20097;-80
2021/09/12 02:28:14;;;;;;;63.08;25.92;;;16.80;99.90;;;;;;5060338;28;20395;-80
2021/09/12 02:30:42;;;;;;;56.13;25.33;;;16.70;99.90;;;;;;5058579;28;20496;-80
2021/09/12 02:33:08;;;;;;;57.38;25.55;;;16.70;99.90;;;;;;5059067;28;20052;-80
2021/09/12 02:35:33;;;;;;;58.40;24.88;;;16.60;99.90;;;;;;5063683;28;20041;-80
2021/09/12 02:37:59;;;;;;;62.15;25.42;;;16.60;99.90;;;;;;5041356;28;20139;-81
2021/09/12 02:40:25;;;;;;;55.50;23.45;;;16.60;99.90;;;;;;5058951;28;20119;-81
2021/09/12 02:42:50;;;;;;;54.15;24.33;;;16.60;99.90;;;;;;5042375;28;20111;-80
2021/09/12 02:45:17;;;;;;;60.15;24.63;;;16.60;99.90;;;;;;5042949;28;20483;-80
2021/09/12 02:47:42;;;;;;;60.30;24.80;;;16.60;99.90;;;;;;5039919;28;20129;-80
2021/09/12 02:50:08;;;;;;;61.28;25.05;;;16.60;99.90;;;;;;5056940;28;20033;-81
2021/09/12 02:52:35;;;;;;;58.92;24.58;;;16.60;99.90;;;;;;5056411;28;20040;-81
2021/09/12 02:55:03;;;;;;;58.05;24.63;;;16.50;99.90;;;;;;5060312;28;20036;-80
2021/09/12 02:57:28;;;;;;;60.10;24.33;;;16.50;99.90;;;;;;5063382;28;20056;-81
2021/09/12 02:59:56;;;;;;;51.17;22.05;;;16.50;99.90;;;;;;5058900;28;20064;-81
2021/09/12 03:02:22;;;;;;;51.05;22.05;;;16.50;99.90;;;;;;5064200;28;20094;-81
2021/09/12 03:04:47;;;;;;;49.22;21.65;;;16.50;99.90;;;;;;5061215;28;20040;-81
2021/09/12 03:07:13;;;;;;;55.00;22.70;;;16.50;99.90;;;;;;5057483;28;20047;-81
2021/09/12 03:09:38;;;;;;;47.53;20.38;;;16.50;99.90;;;;;;5044993;28;20041;-80
2021/09/12 03:12:07;;;;;;;51.90;21.75;;;16.50;99.90;;;;;;5042930;28;20132;-81
2021/09/12 03:14:32;;;;;;;41.80;19.95;;;16.50;99.90;;;;;;5064885;28;20040;-80
2021/09/12 03:16:58;;;;;;;48.80;20.42;;;16.50;99.90;;;;;;5064677;28;20040;-81
2021/09/12 03:19:24;;;;;;;43.58;19.85;;;16.50;99.90;;;;;;5052622;28;20045;-80
2021/09/12 03:21:49;;;;;;;55.60;19.75;;;16.40;99.90;;;;;;5040131;28;20119;-81
2021/09/12 03:24:15;;;;;;;41.72;19.48;;;16.40;99.90;;;;;;5064859;28;20041;-80
2021/09/12 03:26:41;;;;;;;52.22;19.55;;;16.40;99.90;;;;;;5040972;28;20118;-80
2021/09/12 03:29:06;;;;;;;43.67;19.73;;;16.40;99.90;;;;;;5047851;28;20044;-81
2021/09/12 03:31:32;;;;;;;44.13;19.35;;;16.40;99.90;;;;;;5062145;28;20058;-80
2021/09/12 03:33:58;;;;;;;50.60;18.85;;;16.30;99.90;;;;;;5046796;28;20032;-80
2021/09/12 03:36:23;;;;;;;44.78;19.15;;;16.40;99.90;;;;;;5068056;28;20037;-80
2021/09/12 03:38:49;;;;;;;54.25;17.95;;;16.30;99.90;;;;;;5063574;28;20423;-80
2021/09/12 03:41:15;;;;;;;43.45;17.42;;;16.30;99.90;;;;;;5066600;28;20404;-80
2021/09/12 03:43:40;;;;;;;47.55;18.15;;;16.30;99.90;;;;;;5047230;28;20056;-81
2021/09/12 03:46:06;;;;;;;44.28;17.27;;;16.30;99.90;;;;;;5060334;28;20047;-80
2021/09/12 03:48:32;;;;;;;46.58;18.30;;;16.20;99.90;;;;;;5044544;28;20039;-80
2021/09/12 03:50:57;;;;;;;46.70;17.90;;;16.20;99.90;;;;;;5042799;28;20094;-81
2021/09/12 03:53:23;;;;;;;45.65;17.85;;;16.20;99.90;;;;;;5065494;28;20060;-81
2021/09/12 03:55:48;;;;;;;41.72;18.00;;;16.20;99.90;;;;;;5059597;28;20124;-80
2021/09/12 03:58:14;;;;;;;38.30;17.42;;;16.10;99.90;;;;;;5060200;28;20033;-80
2021/09/12 04:00:40;;;;;;;47.58;17.45;;;16.10;99.90;;;;;;5047723;28;20036;-81
2021/09/12 04:03:05;;;;;;;40.80;16.67;;;16.10;99.90;;;;;;5056353;28;20070;-81
2021/09/12 04:05:31;;;;;;;37.97;16.20;;;16.10;99.90;;;;;;5063343;28;20037;-80
2021/09/12 04:07:57;;;;;;;36.33;16.42;;;16.10;99.90;;;;;;5044035;28;20148;-81
2021/09/12 04:10:23;;;;;;;41.72;17.42;;;16.10;99.90;;;;;;5063643;28;20040;-80
2021/09/12 04:12:49;;;;;;;39.65;16.67;;;16.10;99.90;;;;;;5061290;28;20203;-81
2021/09/12 04:15:15;;;;;;;44.83;17.02;;;16.10;99.90;;;;;;5061310;28;20234;-80
2021/09/12 04:17:41;;;;;;;38.15;16.13;;;16.10;99.90;;;;;;5042077;28;20029;-80
2021/09/12 04:20:07;;;;;;;40.35;16.13;;;16.00;99.90;;;;;;5049198;28;20040;-80
2021/09/12 04:22:33;;;;;;;39.70;15.52;;;16.00;99.90;;;;;;5059199;28;22181;-81
2021/09/12 04:24:59;;;;;;;40.28;15.95;;;16.10;99.90;;;;;;5046914;28;20056;-81
2021/09/12 04:27:25;;;;;;;42.13;15.85;;;16.00;99.90;;;;;;5045807;28;20052;-80
2021/09/12 04:29:50;;;;;;;42.22;15.15;;;16.00;99.90;;;;;;5045120;28;20056;-80
2021/09/12 04:32:16;;;;;;;38.60;15.10;;;16.00;99.90;;;;;;5060614;28;20166;-80
2021/09/12 04:34:46;;;;;;;33.58;14.10;;;16.00;99.90;;;;;;5045389;28;20138;-80
2021/09/12 04:37:11;;;;;;;38.33;14.85;;;16.00;99.90;;;;;;5060285;28;20041;-80
2021/09/12 04:39:37;;;;;;;36.58;13.63;;;15.90;99.90;;;;;;5044457;28;20114;-81
2021/09/12 04:42:03;;;;;;;40.78;13.77;;;16.00;99.90;;;;;;5060005;28;20054;-81
2021/09/12 04:44:29;;;;;;;35.92;14.07;;;16.00;99.90;;;;;;5045653;28;20119;-80
2021/09/12 04:46:55;;;;;;;37.47;14.57;;;15.90;99.90;;;;;;5058823;28;20136;-81
2021/09/12 04:49:20;;;;;;;42.22;13.18;;;16.00;99.90;;;;;;5058145;28;20036;-80
2021/09/12 04:51:46;;;;;;;40.72;14.07;;;16.00;99.90;;;;;;5062400;28;20032;-80
2021/09/12 04:54:12;;;;;;;37.38;14.05;;;16.00;99.90;;;;;;5061192;28;20554;-80
2021/09/12 04:56:37;;;;;;;34.40;13.48;;;16.00;99.90;;;;;;5059454;28;20057;-81
2021/09/12 04:59:03;;;;;;;43.33;13.68;;;16.00;99.90;;;;;;5054207;28;20132;-81
2021/09/12 05:01:29;;;;;;;33.00;13.73;;;16.00;99.90;;;;;;5060544;28;20068;-80
2021/09/12 05:03:55;;;;;;;42.20;13.63;;;16.00;99.90;;;;;;5056427;28;20341;-81
2021/09/12 05:06:21;;;;;;;41.35;12.50;;;16.00;99.90;;;;;;5038906;28;20123;-81
2021/09/12 05:08:46;;;;;;;36.30;12.65;;;16.00;99.90;;;;;;5064104;28;20117;-80
2021/09/12 05:11:12;;;;;;;34.08;12.57;;;16.00;99.90;;;;;;5063776;28;20044;-80
2021/09/12 05:13:38;;;;;;;32.13;12.68;;;16.00;99.90;;;;;;5044340;28;20075;-81
2021/09/12 05:16:06;;;;;;;38.58;13.63;;;16.00;99.90;;;;;;5057311;28;20072;-81
2021/09/12 05:18:32;;;;;;;40.10;13.25;;;16.00;99.90;;;;;;5060706;28;20036;-80
2021/09/12 05:20:58;;;;;;;36.42;13.02;;;16.00;99.90;;;;;;5041980;28;20071;-81
2021/09/12 05:23:24;;;;;;;29.10;12.45;;;16.00;99.90;;;;;;5042195;28;20055;-80
2021/09/12 05:25:50;;;;;;;42.83;13.40;;;15.90;99.90;;;;;;5059018;28;20047;-80
2021/09/12 05:28:17;;;;;;;32.83;12.52;;;15.90;99.90;;;;;;5040863;28;20060;-80
2021/09/12 05:30:43;;;;;;;41.88;12.73;;;15.90;99.90;;;;;;5058565;28;20068;-80
2021/09/12 05:33:08;;;;;;;31.50;12.90;;;16.00;99.90;;;;;;5059352;28;20076;-80
2021/09/12 05:35:34;;;;;;;33.15;12.55;;;15.90;99.90;;;;;;5059226;28;20357;-80
2021/09/12 05:38:00;;;;;;;36.03;12.55;;;16.00;99.90;;;;;;5059568;28;20056;-81
2021/09/12 05:40:25;;;;;;;40.55;13.95;;;15.90;99.90;;;;;;5061829;28;20135;-80
2021/09/12 05:42:51;;;;;;;43.90;13.48;;;16.00;99.90;;;;;;5046829;28;20056;-81
2021/09/12 05:45:17;;;;;;;35.30;12.95;;;15.90;99.90;;;;;;5059362;28;20055;-80
2021/09/12 05:47:45;;;;;;;35.22;12.82;;;15.90;99.90;;;;;;5059861;28;20047;-80
2021/09/12 05:50:11;;;;;;;34.55;12.43;;;16.00;99.90;;;;;;5037706;28;20056;-80
2021/09/12 05:52:37;;;;;;;37.10;13.25;;;16.00;99.90;;;;;;5053338;28;20041;-80
2021/09/12 05:55:04;;;;;;;39.50;12.80;;;16.00;99.90;;;;;;5038264;28;20048;-80
2021/09/12 05:57:29;;;;;;;38.60;13.30;;;16.00;99.90;;;;;;5057749;28;20186;-80
2021/09/12 05:59:55;;;;;;;38.63;13.90;;;16.00;99.90;;;;;;5039895;28;20140;-81
2021/09/12 06:02:21;;;;;;;34.88;13.85;;;16.00;99.90;;;;;;5060057;28;20053;-80
2021/09/12 06:05:15;;;;;;;39.28;14.45;;;16.10;99.90;;;;;;5079505;22;20049;-79
2021/09/12 06:07:59;;;;;;;43.03;14.23;;;16.10;99.90;;;;;;5021488;28;20151;-81
2021/09/12 06:11:12;;;;;;;;;;;;;;;;;;;;;
2021/09/12 06:14:24;;;;;;;38.20;12.98;;;16.20;99.90;;;;;;5001802;28;20042;-80
2021/09/12 06:17:40;;;;;;;33.03;13.75;;;16.30;99.90;;;;;;4944304;29;20183;-80
2021/09/12 06:24:25;;;;;;;;;;;;;;;;;;;;;
2021/09/12 06:27:53;;;;;;;37.67;12.95;;;16.40;99.90;;;;;;4904241;29;20078;-80
2021/09/12 06:38:09;;;;;;;36.17;13.68;;;16.60;99.90;;;;;;4834737;29;20149;-80
2021/09/12 06:41:15;;;;;;;37.63;13.95;;;16.60;99.90;;;;;;4835362;29;20061;-80
2021/09/12 06:44:27;;;;;;;42.72;14.75;;;16.70;99.90;;;;;;4838526;29;20180;-80
2021/09/12 06:47:11;;;;;;;40.08;14.15;;;16.80;99.90;;;;;;4839075;29;20512;-80
2021/09/12 06:53:43;;;;;;;35.30;13.95;;;17.00;99.90;;;;;;4834333;29;20054;-80
2021/09/12 06:57:11;;;;;;;;;;;;;;;;;;;;;
2021/09/12 06:59:58;;;;;;;38.42;14.30;;;17.20;99.90;;;;;;4833376;29;20393;-82
2021/09/12 07:02:24;;;;;;;40.50;13.77;;;17.20;99.90;;;;;;4817843;29;20051;-80
2021/09/12 07:04:50;;;;;;;42.70;13.82;;;17.30;99.90;;;;;;4799254;29;20070;-80
2021/09/12 07:07:15;;;;;;;43.35;14.23;;;17.30;99.90;;;;;;4784615;29;20162;-80
2021/09/12 07:09:41;;;;;;;31.75;13.73;;;17.40;99.90;;;;;;4783881;29;20102;-81
2021/09/12 07:12:08;;;;;;;38.42;13.73;;;17.40;99.90;;;;;;4798548;29;20143;-82
2021/09/12 07:14:34;;;;;;;38.08;13.50;;;17.50;99.90;;;;;;4861239;29;20369;-81
2021/09/12 07:16:59;;;;;;;38.42;14.45;;;17.60;99.90;;;;;;4860378;29;20057;-82
2021/09/12 07:19:25;;;;;;;37.60;12.32;;;17.50;99.90;;;;;;4876815;29;20200;-82
2021/09/12 07:21:54;;;;;;;42.05;13.38;;;17.50;99.90;;;;;;4874455;29;20138;-82
2021/09/12 07:24:22;;;;;;;37.53;14.10;;;17.50;99.90;;;;;;4876688;29;20048;-81
2021/09/12 07:26:53;;;;;;;37.67;13.15;;;17.50;99.90;;;;;;4874258;29;20059;-81
2021/09/12 07:29:19;;;;;;;42.03;14.15;;;17.50;99.90;;;;;;4873963;29;20131;-81
2021/09/12 07:31:45;;;;;;;37.45;15.02;;;17.60;99.90;;;;;;4875968;29;20120;-82
2021/09/12 07:34:10;;;;;;;42.65;14.73;;;17.60;99.90;;;;;;4932693;28;21087;-79
2021/09/12 07:36:36;;;;;;;26.20;11.10;;;17.60;99.90;;;;;;4979435;28;20045;-80
2021/09/12 07:39:02;;;;;;;32.97;12.73;;;17.90;99.90;;;;;;5002470;28;20056;-78
2021/09/12 07:41:30;;;;;;;34.45;13.52;;;18.10;99.90;;;;;;5004005;28;20124;-80
2021/09/12 07:43:56;;;;;;;33.42;13.75;;;18.00;99.90;;;;;;5004902;28;20077;-81
2021/09/12 07:46:25;;;;;;;24.13;11.20;;;18.00;99.90;;;;;;5005480;28;20084;-80
2021/09/12 07:48:53;;;;;;;35.97;13.50;;;18.20;99.90;;;;;;5002523;28;20038;-82
2021/09/12 07:51:19;;;;;;;31.92;13.30;;;18.20;99.90;;;;;;5006343;28;20037;-80
2021/09/12 07:53:45;;;;;;;31.15;11.77;;;18.30;99.90;;;;;;5003119;28;20112;-80
2021/09/12 07:56:10;;;;;;;34.83;13.68;;;18.60;99.90;;;;;;5003710;28;20077;-78
2021/09/12 07:58:36;;;;;;;32.65;11.82;;;18.50;99.90;;;;;;5007033;28;20380;-81
2021/09/12 08:01:02;;;;;;;30.48;12.75;;;18.60;99.90;;;;;;5006007;28;20541;-81
2021/09/12 08:07:00;;;;;;;33.08;13.00;;;18.50;99.90;;;;;;4885590;29;20128;-80
2021/09/12 08:09:30;;;;;;;33.70;13.07;;;18.40;99.90;;;;;;4855551;29;20043;-79
2021/09/12 08:11:56;;;;;;;29.13;13.90;;;18.40;99.90;;;;;;4867885;29;20049;-80
2021/09/12 08:14:21;;;;;;;32.47;13.38;;;18.50;99.90;;;;;;4873096;29;20536;-79
2021/09/12 08:16:47;;;;;;;36.47;14.23;;;18.50;99.90;;;;;;4874008;29;20091;-80
2021/09/12 08:19:13;;;;;;;28.55;13.60;;;18.60;99.90;;;;;;4856589;29;20039;-80
2021/09/12 08:21:38;;;;;;;27.52;14.18;;;18.50;99.90;;;;;;4871433;29;20536;-80
2021/09/12 08:24:05;;;;;;;32.17;14.93;;;18.60;99.90;;;;;;4858460;29;20049;-83
2021/09/12 08:26:32;;;;;;;29.60;14.95;;;18.70;99.90;;;;;;4870191;29;20046;-84
2021/09/12 08:28:59;;;;;;;30.15;14.32;;;18.70;99.90;;;;;;4863066;29;20047;-83
2021/09/12 08:31:25;;;;;;;28.17;14.35;;;18.70;99.90;;;;;;4869528;29;20100;-85
2021/09/12 08:33:50;;;;;;;29.33;13.77;;;18.90;99.90;;;;;;4871596;29;20473;-80
2021/09/12 08:36:50;;;;;;;26.70;13.38;;;19.00;99.90;;;;;;4870173;29;20123;-86
2021/09/12 08:39:27;;;;;;;32.05;14.10;;;19.00;99.90;;;;;;4872107;29;20504;-81
2021/09/12 08:41:53;;;;;;;29.85;12.88;;;19.00;99.90;;;;;;4874872;29;20141;-83
2021/09/12 08:44:20;;;;;;;29.42;13.25;;;19.10;99.90;;;;;;4874919;29;20116;-82
2021/09/12 08:47:35;;;;;;;27.88;13.65;;;19.10;99.90;;;;;;4874879;29;20056;-83
2021/09/12 08:50:46;;;;;;;;;;;;;;;;;;;;;
2021/09/12 08:53:27;;;;;;;24.77;12.70;;;19.20;99.90;;;;;;4752343;30;20075;-82
2021/09/12 08:55:52;;;;;;;28.00;12.68;;;19.30;99.90;;;;;;4731172;30;20144;-86
2021/09/12 08:58:18;;;;;;;26.08;11.43;;;19.30;99.90;;;;;;4732213;30;20064;-82
2021/09/12 09:00:45;;;;;;;25.23;12.32;;;19.20;99.90;;;;;;4743265;30;20143;-83
2021/09/12 09:03:14;;;;;;;28.08;11.80;;;19.20;99.90;;;;;;4727669;30;20496;-82
2021/09/12 09:05:50;;;;;;;28.63;11.27;;;19.30;99.90;;;;;;4766846;29;20054;-81
2021/09/12 09:08:18;;;;;;;21.90;9.32;;;19.30;99.90;;;;;;4764361;29;20047;-82
2021/09/12 09:10:51;;;;;;;22.25;11.07;;;19.40;99.90;;;;;;4761225;29;20059;-81
2021/09/12 09:13:30;;;;;;;24.58;11.18;;;19.60;99.90;;;;;;4760586;29;20047;-82
2021/09/12 09:15:59;;;;;;;25.98;11.23;;;19.60;99.90;;;;;;4776814;29;20180;-81
2021/09/12 09:18:37;;;;;;;21.92;11.40;;;19.80;99.90;;;;;;4778668;29;20055;-80
2021/09/12 09:21:30;;;;;;;23.30;10.57;;;19.80;99.90;;;;;;4760547;30;20051;-82
2021/09/12 09:24:17;;;;;;;20.60;10.35;;;20.00;99.90;;;;;;4755137;30;20180;-81
2021/09/12 09:26:50;;;;;;;24.13;10.02;;;20.00;99.90;;;;;;4746125;29;20402;-82
2021/09/12 09:29:29;;;;;;;22.98;10.13;;;20.10;99.90;;;;;;4777411;29;20065;-79
2021/09/12 09:32:14;;;;;;;17.02;9.20;;;20.10;99.90;;;;;;4840101;29;20054;-86
2021/09/12 09:34:41;;;;;;;22.20;10.07;;;20.20;99.90;;;;;;4851598;29;20167;-77
2021/09/12 09:37:21;;;;;;;21.52;10.55;;;20.30;99.90;;;;;;4853142;29;20132;-79
2021/09/12 09:39:52;;;;;;;22.42;9.80;;;20.30;99.90;;;;;;4853831;29;20054;-79
2021/09/12 09:42:34;;;;;;;20.52;9.38;;;20.40;99.90;;;;;;4864549;29;20053;-76
2021/09/12 09:45:09;;;;;;;22.40;9.48;;;20.40;99.90;;;;;;4831790;29;20052;-80
2021/09/12 09:47:35;;;;;;;19.30;9.50;;;20.30;99.90;;;;;;4853388;29;20077;-79
2021/09/12 09:50:06;;;;;;;23.98;9.77;;;20.20;99.90;;;;;;4852364;29;20045;-78
2021/09/12 09:52:33;;;;;;;18.75;9.00;;;20.10;99.90;;;;;;4850909;29;20867;-81
2021/09/12 09:55:00;;;;;;;22.30;8.48;;;20.00;99.90;;;;;;4837312;29;20053;-81
2021/09/12 09:57:26;;;;;;;19.63;8.57;;;20.00;99.90;;;;;;4854891;29;20037;-84
2021/09/12 09:59:52;;;;;;;19.38;9.45;;;19.70;99.90;;;;;;4838152;29;20047;-78
2021/09/12 10:02:19;;;;;;;18.70;9.77;;;19.60;99.90;;;;;;4859582;29;20152;-77
2021/09/12 10:04:45;;;;;;;21.30;11.07;;;19.40;99.90;;;;;;4874760;29;20045;-78
2021/09/12 10:07:12;;;;;;;26.25;12.50;;;19.40;99.90;;;;;;4879164;29;20048;-80
2021/09/12 10:09:38;;;;;;;27.50;12.85;;;19.40;99.90;;;;;;4894820;29;20036;-80
2021/09/12 10:12:26;;;;;;;29.92;13.15;;;19.30;99.90;;;;;;4878707;29;20127;-78
2021/09/12 10:14:55;;;;;;;24.98;11.18;;;19.40;99.90;;;;;;4855221;29;20048;-81
2021/09/12 10:17:24;;;;;;;20.58;9.95;;;19.50;99.90;;;;;;4857797;29;20045;-79
2021/09/12 10:20:04;;;;;;;25.15;11.40;;;19.60;99.90;;;;;;4878680;29;20064;-82
2021/09/12 10:22:30;;;;;;;23.70;8.68;;;19.60;99.90;;;;;;4871198;29;20053;-79
2021/09/12 10:25:02;;;;;;;15.88;8.70;;;19.70;99.90;;;;;;4859972;29;20212;-81
2021/09/12 10:27:34;;;;;;;18.08;8.43;;;19.80;99.90;;;;;;4874093;29;20051;-79
2021/09/12 10:30:22;;;;;;;20.70;11.88;;;19.90;99.90;;;;;;4875627;29;20064;-79
2021/09/12 10:32:51;;;;;;;20.50;12.32;;;19.90;99.90;;;;;;4866461;29;20205;-80
2021/09/12 10:35:26;;;;;;;20.35;10.52;;;19.80;99.90;;;;;;4876978;29;20041;-80
2021/09/12 10:38:11;;;;;;;19.25;8.85;;;19.80;99.90;;;;;;4879461;29;20488;-81
2021/09/12 10:40:48;;;;;;;15.43;8.88;;;19.80;99.90;;;;;;4877229;29;20047;-80
2021/09/12 10:43:35;;;;;;;20.52;8.73;;;20.10;99.90;;;;;;4874078;29;20040;-80
2021/09/12 10:46:04;;;;;;;14.57;8.45;;;20.10;99.90;;;;;;4872885;29;20586;-80
2021/09/12 10:48:35;;;;;;;15.88;7.95;;;20.20;99.90;;;;;;4875598;29;20044;-80
2021/09/12 10:51:10;;;;;;;10.30;6.53;;;20.40;99.90;;;;;;4874855;29;20044;-81
2021/09/12 10:53:45;;;;;;;14.25;6.18;;;20.50;99.90;;;;;;4851521;29;20040;-81
2021/09/12 10:56:16;;;;;;;12.32;5.30;;;20.70;99.90;;;;;;4875005;29;20112;-79
2021/09/12 10:58:52;;;;;;;10.80;5.07;;;20.70;99.90;;;;;;4875135;29;20047;-80
2021/09/12 11:01:36;;;;;;;7.97;2.25;;;20.70;99.90;;;;;;4878418;29;20145;-80
2021/09/12 11:04:03;;;;;;;4.43;1.70;;;20.60;99.90;;;;;;4875720;29;20055;-80
2021/09/12 11:06:32;;;;;;;2.60;1.45;;;20.90;99.90;;;;;;4885108;29;20088;-81
2021/09/12 11:09:00;;;;;;;4.35;1.23;;;21.10;99.90;;;;;;4857573;29;20091;-81
2021/09/12 11:11:29;;;;;;;3.72;1.10;;;21.20;99.90;;;;;;4870829;29;20433;-81
2021/09/12 11:13:56;;;;;;;4.20;1.25;;;21.20;99.90;;;;;;4879470;29;20127;-82
2021/09/12 11:16:24;;;;;;;6.53;1.23;;;21.10;99.90;;;;;;4892908;29;20051;-80
2021/09/12 11:18:53;;;;;;;3.88;1.10;;;21.20;99.90;;;;;;4889452;29;20048;-82
2021/09/12 11:21:31;;;;;;;4.43;0.95;;;21.20;99.90;;;;;;4878505;29;20040;-81
2021/09/12 11:24:24;;;;;;;3.33;1.05;;;21.10;99.90;;;;;;4893477;29;20173;-83
2021/09/12 11:26:56;;;;;;;5.05;1.08;;;20.90;99.90;;;;;;4895463;29;20087;-82
2021/09/12 11:29:32;;;;;;;5.95;1.10;;;21.00;99.90;;;;;;4891706;29;20048;-80
2021/09/12 11:32:24;;;;;;;7.28;1.58;;;21.10;99.90;;;;;;4878099;29;20040;-82
2021/09/12 11:34:51;;;;;;;2.90;1.10;;;21.20;99.90;;;;;;4893024;29;20164;-81
2021/09/12 11:37:19;;;;;;;4.45;1.00;;;21.50;99.90;;;;;;4878310;29;20123;-80
2021/09/12 11:39:47;;;;;;;2.95;0.90;;;21.70;99.90;;;;;;4876875;29;20047;-80
2021/09/12 11:42:19;;;;;;;3.50;0.90;;;21.90;99.90;;;;;;4892887;29;20055;-80
2021/09/12 11:44:47;;;;;;;3.67;0.93;;;22.10;99.90;;;;;;4910894;29;20062;-79
2021/09/12 11:47:15;;;;;;;5.35;1.30;;;22.30;99.90;;;;;;4897206;29;20096;-79
2021/09/12 11:49:42;;;;;;;1.52;0.73;;;22.50;99.90;;;;;;4898381;29;20056;-77
2021/09/12 11:52:09;;;;;;;3.85;1.00;;;22.60;99.90;;;;;;4892519;29;20048;-79
2021/09/12 11:54:35;;;;;;;3.70;0.80;;;22.70;99.90;;;;;;4892496;29;20046;-78
2021/09/12 11:57:13;;;;;;;1.73;0.77;;;22.40;99.90;;;;;;4877569;29;20066;-81
2021/09/12 11:59:44;;;;;;;2.13;0.80;;;22.40;99.90;;;;;;4879754;29;20186;-80
2021/09/12 12:02:19;;;;;;;2.58;1.00;;;22.30;99.90;;;;;;4887947;29;20048;-81
2021/09/12 12:04:46;;;;;;;4.07;0.90;;;22.40;99.90;;;;;;4890642;29;20098;-84
2021/09/12 12:07:12;;;;;;;3.08;0.80;;;22.50;99.90;;;;;;4910746;29;20071;-83
2021/09/12 12:09:38;;;;;;;3.35;0.98;;;22.50;99.90;;;;;;4908103;29;20048;-83
2021/09/12 12:12:06;;;;;;;3.63;1.10;;;23.00;99.90;;;;;;4896308;29;20104;-82
2021/09/12 12:14:33;;;;;;;3.15;0.90;;;23.10;99.90;;;;;;4875294;29;20052;-81
2021/09/12 12:17:04;;;;;;;1.52;0.93;;;22.90;99.90;;;;;;4876128;29;20036;-81
2021/09/12 12:19:34;;;;;;;5.53;1.10;;;22.80;99.90;;;;;;4891862;29;20048;-80
2021/09/12 12:22:08;;;;;;;5.13;1.15;;;22.60;99.90;;;;;;4895451;29;20079;-82
2021/09/12 12:24:36;;;;;;;4.35;1.10;;;22.60;99.90;;;;;;4868854;29;20048;-81
2021/09/12 12:27:07;;;;;;;2.53;0.90;;;22.50;99.90;;;;;;4893181;29;20134;-81
2021/09/12 12:29:34;;;;;;;3.30;1.10;;;22.50;99.90;;;;;;4895388;29;20048;-84
2021/09/12 12:32:02;;;;;;;3.00;1.10;;;22.90;99.90;;;;;;4892952;29;20032;-81
2021/09/12 12:34:41;;;;;;;4.30;1.10;;;22.90;99.90;;;;;;4910363;29;20499;-83
2021/09/12 12:37:09;;;;;;;3.63;1.10;;;22.90;99.90;;;;;;4878825;29;20341;-82
2021/09/12 12:39:36;;;;;;;7.93;1.40;;;22.90;99.90;;;;;;4895866;29;20119;-82
2021/09/12 12:42:02;;;;;;;3.13;1.10;;;22.70;99.90;;;;;;4910890;29;20044;-83
2021/09/12 12:44:28;;;;;;;4.28;1.13;;;22.30;99.90;;;;;;4876306;29;20092;-83
2021/09/12 12:46:56;;;;;;;3.45;1.30;;;22.20;99.90;;;;;;4878390;29;20067;-82
2021/09/12 12:49:27;;;;;;;3.60;0.90;;;22.20;99.90;;;;;;4890958;29;20075;-80
2021/09/12 12:52:05;;;;;;;4.35;1.38;;;22.10;99.90;;;;;;4877969;29;20187;-82
2021/09/12 12:54:34;;;;;;;2.92;1.08;;;22.10;99.90;;;;;;4892668;29;20032;-81
2021/09/12 12:57:01;;;;;;;8.80;1.30;;;22.20;99.90;;;;;;4897600;29;20040;-80
2021/09/12 12:59:27;;;;;;;2.80;1.30;;;22.20;99.90;;;;;;4880290;29;21289;-81
2021/09/12 13:01:53;;;;;;;3.88;1.10;;;22.20;99.90;;;;;;4892009;29;20048;-82
2021/09/12 13:04:19;;;;;;;4.97;1.10;;;22.30;99.90;;;;;;4908697;29;20313;-81
2021/09/12 13:06:48;;;;;;;4.80;1.17;;;22.10;99.90;;;;;;4922485;29;20059;-81
2021/09/12 13:09:13;;;;;;;4.18;1.20;;;22.20;99.90;;;;;;4913305;29;20044;-82
2021/09/12 13:11:39;;;;;;;3.97;1.58;;;21.90;99.90;;;;;;4916295;29;20067;-83
2021/09/12 13:14:08;;;;;;;3.35;1.00;;;21.70;99.90;;;;;;4909395;29;20040;-83
2021/09/12 13:16:33;;;;;;;4.93;1.25;;;21.50;99.90;;;;;;4912702;29;20070;-82